ホーチミン の空港の天気 - METARとTAF

タンソンニャット国際空港 (ホーチミン) ( VVTS / SGN ) - ベトナム ホーチミン市
飛行場実況気象(Metar)
観測時間04/27 13:30 +07 (04/27 06:30 UTC)
風向・風速不定 2m/s
視程10km以上
天気現象
全天の8割程度の雲 雲底高度 520m
気温34℃
湿度50%
気圧1007hPa
METARVVTS 270630Z VRB03KT 9999 BKN017 34/22 Q1007 NOSIG
過去の天気等 Google飛行場航空写真 Wunderground天気予報

過去48時間のMETAR

飛行場予報(TAF)
発表時間: 4/27 12:00 +07 (4/27 05:00 UTC)
予報対象時間: 27日13時 +07 ~ 28日19時 +07
風向・風速西 3m/s
視程10km以上
全天の4割程度の雲 雲底高度 460m
27日13時 +07 ~ 27日19時 +07 に一時的に
視程3,000m
天気現象雷雨
全天の8割程度の雲 雲底高度 460m
全天の4割程度の積乱雲 雲底高度 520m
全天の8割程度の雲 雲底高度 1,220m
TAF VVTS 270500Z 2706/2812 28006KT 9999 SCT015
TEMPO 2706/2712 3000 TSRA BKN015 SCT017CB BKN040